createdAt,value
2022-09-15T00:02:04.246Z,13.40
2022-09-15T00:06:26.908Z,13.30
2022-09-15T00:10:59.212Z,13.20
2022-09-15T00:15:21.960Z,13.30
2022-09-15T00:19:44.052Z,13.20
2022-09-15T00:24:07.535Z,13.20
2022-09-15T00:28:29.606Z,13.20
2022-09-15T00:32:51.713Z,13.20
2022-09-15T00:37:13.924Z,13.20
2022-09-15T00:41:36.072Z,13.30
2022-09-15T00:45:58.162Z,13.30
2022-09-15T00:50:21.712Z,13.40
2022-09-15T00:55:09.531Z,13.40
2022-09-15T00:59:34.194Z,13.30
2022-09-15T01:03:56.813Z,13.30
2022-09-15T01:08:32.204Z,13.40
2022-09-15T01:13:01.596Z,13.30
2022-09-15T01:18:23.612Z,13.30
2022-09-15T01:23:27.634Z,13.30
2022-09-15T01:28:11.532Z,13.30
2022-09-15T01:33:04.712Z,13.30
2022-09-15T01:37:34.932Z,13.30
2022-09-15T01:42:12.974Z,13.30
2022-09-15T01:46:47.281Z,13.40
2022-09-15T01:51:11.193Z,13.40
2022-09-15T01:55:41.953Z,13.30
2022-09-15T02:00:05.693Z,13.30
2022-09-15T02:04:41.724Z,13.20
2022-09-15T02:09:49.974Z,13.20
2022-09-15T02:14:51.672Z,13.20
2022-09-15T02:19:42.033Z,13.20
2022-09-15T02:24:19.373Z,13.20
2022-09-15T02:28:43.484Z,13.10
2022-09-15T02:33:10.504Z,13.10
2022-09-15T02:37:33.453Z,13.20
2022-09-15T02:41:55.751Z,13.20
2022-09-15T02:46:22.758Z,13.20
2022-09-15T02:50:45.314Z,13.10
2022-09-15T02:55:08.432Z,13.20
2022-09-15T02:59:49.343Z,13.20
2022-09-15T03:04:11.758Z,13.10
2022-09-15T03:08:34.677Z,13.20
2022-09-15T03:12:57.352Z,13.20
2022-09-15T03:17:20.153Z,13.20
2022-09-15T03:21:42.553Z,13.20
2022-09-15T03:26:06.112Z,13.20
2022-09-15T03:30:28.664Z,13.10
2022-09-15T03:34:54.128Z,13.10
2022-09-15T03:39:18.473Z,13.10
2022-09-15T03:43:41.812Z,13.10
2022-09-15T03:48:06.091Z,13.10
2022-09-15T03:52:32.433Z,13.10
2022-09-15T03:56:54.504Z,13.10
2022-09-15T04:01:18.521Z,13.10
2022-09-15T04:05:41.263Z,13.00
2022-09-15T04:10:04.429Z,13.00
2022-09-15T04:14:26.528Z,13.00
2022-09-15T04:18:49.313Z,13.00
2022-09-15T04:23:12.233Z,13.00
2022-09-15T04:27:36.073Z,13.00
2022-09-15T04:31:58.573Z,13.00
2022-09-15T04:36:24.473Z,13.00
2022-09-15T04:40:46.654Z,12.90
2022-09-15T04:45:10.185Z,12.90
2022-09-15T04:49:32.572Z,12.90
2022-09-15T04:53:55.097Z,12.90
2022-09-15T04:58:17.510Z,12.90
2022-09-15T05:02:39.972Z,12.90
2022-09-15T05:07:02.492Z,12.90
2022-09-15T05:11:26.157Z,12.90
2022-09-15T05:15:48.642Z,12.90
2022-09-15T05:20:11.056Z,12.90
2022-09-15T05:24:34.803Z,12.90
2022-09-15T05:28:58.016Z,12.90
2022-09-15T05:33:21.928Z,12.90
2022-09-15T05:37:44.621Z,12.90
2022-09-15T05:42:07.154Z,12.90
2022-09-15T05:46:29.639Z,12.90
2022-09-15T05:50:54.432Z,13.00
2022-09-15T05:55:16.652Z,13.10
2022-09-15T05:59:39.534Z,13.10
2022-09-15T06:04:01.932Z,13.20
2022-09-15T06:08:24.893Z,13.20
2022-09-15T06:12:47.093Z,13.20
2022-09-15T06:17:09.532Z,13.40
2022-09-15T06:21:33.631Z,13.40
2022-09-15T06:25:56.013Z,13.50
2022-09-15T06:30:19.153Z,13.60
2022-09-15T06:34:41.453Z,13.70
2022-09-15T06:39:04.012Z,13.80
2022-09-15T06:43:27.173Z,14.00
2022-09-15T06:48:02.231Z,14.00
2022-09-15T06:52:34.013Z,14.00
2022-09-15T06:56:56.273Z,14.20
2022-09-15T07:01:31.636Z,14.30
2022-09-15T07:05:54.032Z,14.50
2022-09-15T07:10:16.345Z,14.60
2022-09-15T07:14:38.632Z,14.60
2022-09-15T07:19:03.556Z,14.80
2022-09-15T07:23:25.993Z,14.90
2022-09-15T07:27:48.292Z,15.10
2022-09-15T07:32:10.552Z,15.40
2022-09-15T07:36:33.375Z,15.50
2022-09-15T07:40:55.572Z,15.80
2022-09-15T07:45:18.447Z,16.00
2022-09-15T07:49:40.812Z,16.20
2022-09-15T07:54:03.212Z,16.50
2022-09-15T07:58:25.773Z,16.80
2022-09-15T08:02:47.773Z,17.00
2022-09-15T08:07:10.997Z,17.40
2022-09-15T08:11:33.252Z,17.90
2022-09-15T08:15:55.233Z,18.30
2022-09-15T08:20:18.334Z,18.40
2022-09-15T08:24:40.472Z,18.40
2022-09-15T08:29:02.873Z,17.90
2022-09-15T08:33:25.492Z,17.70
2022-09-15T08:37:48.072Z,17.60
2022-09-15T08:42:18.004Z,17.80
2022-09-15T08:47:34.252Z,18.20
2022-09-15T08:52:03.712Z,18.80
2022-09-15T08:56:29.312Z,18.80
2022-09-15T09:01:11.253Z,18.60
2022-09-15T09:05:59.894Z,18.80
2022-09-15T09:10:41.952Z,18.80
2022-09-15T09:15:53.576Z,18.70
2022-09-15T09:21:15.293Z,18.80
2022-09-15T09:25:38.612Z,18.50
2022-09-15T09:30:18.365Z,17.90
2022-09-15T09:34:56.692Z,17.50
2022-09-15T09:39:18.992Z,17.30
2022-09-15T09:43:44.446Z,17.30
2022-09-15T09:48:22.394Z,17.10
2022-09-15T09:52:44.663Z,16.90
2022-09-15T09:57:31.952Z,16.90
2022-09-15T10:02:11.233Z,16.90
2022-09-15T10:06:34.117Z,16.90
2022-09-15T10:11:10.433Z,16.90
2022-09-15T10:15:41.372Z,17.00
2022-09-15T10:20:20.368Z,17.10
2022-09-15T10:24:43.165Z,17.10
2022-09-15T10:29:18.292Z,17.00
2022-09-15T10:33:45.298Z,16.90
2022-09-15T10:38:14.366Z,16.90
2022-09-15T10:42:55.792Z,17.20
2022-09-15T10:47:48.933Z,17.40
2022-09-15T10:52:26.234Z,17.70
2022-09-15T10:56:55.432Z,17.80
2022-09-15T11:01:30.034Z,18.60
2022-09-15T11:06:25.824Z,20.80
2022-09-15T11:10:52.112Z,22.90
2022-09-15T11:15:39.132Z,23.40
2022-09-15T11:20:31.152Z,23.40
2022-09-15T11:25:06.591Z,23.00
2022-09-15T11:29:51.794Z,22.70
2022-09-15T11:34:36.031Z,22.50
2022-09-15T11:39:41.892Z,22.80
2022-09-15T11:44:24.973Z,22.00
2022-09-15T11:49:08.196Z,21.20
2022-09-15T11:53:56.053Z,20.50
2022-09-15T11:58:41.312Z,19.80
2022-09-15T12:03:29.493Z,19.70
2022-09-15T12:07:56.944Z,20.10
2022-09-15T12:12:21.894Z,20.90
2022-09-15T12:16:44.953Z,21.50
2022-09-15T12:21:27.272Z,22.00
2022-09-15T12:26:20.412Z,22.20
2022-09-15T12:30:43.012Z,22.30
2022-09-15T12:35:20.000Z,22.20
2022-09-15T12:39:47.315Z,22.10
2022-09-15T12:44:48.191Z,21.60
2022-09-15T12:49:18.385Z,21.40
2022-09-15T12:54:07.713Z,21.40
2022-09-15T12:58:44.712Z,21.40
2022-09-15T13:03:51.513Z,21.80
2022-09-15T13:08:29.952Z,21.80
2022-09-15T13:13:08.173Z,21.50
2022-09-15T13:17:31.272Z,21.50
2022-09-15T13:22:12.314Z,21.70
2022-09-15T13:26:36.452Z,21.20
2022-09-15T13:31:16.669Z,20.60
2022-09-15T13:36:06.891Z,20.40
2022-09-15T13:40:34.680Z,20.10
2022-09-15T13:45:27.452Z,19.60
2022-09-15T13:50:10.836Z,19.30
2022-09-15T13:54:33.573Z,19.60
2022-09-15T13:59:10.079Z,19.90
2022-09-15T14:04:25.953Z,19.90
2022-09-15T14:08:56.252Z,19.90
2022-09-15T14:13:21.298Z,19.70
2022-09-15T14:17:46.892Z,19.30
2022-09-15T14:22:18.112Z,18.90
2022-09-15T14:26:40.652Z,18.90
2022-09-15T14:31:03.166Z,18.90
2022-09-15T14:35:37.752Z,18.70
2022-09-15T14:40:17.252Z,18.60
2022-09-15T14:49:24.104Z,18.40
2022-09-15T14:53:50.133Z,18.20
2022-09-15T14:58:39.294Z,18.10
2022-09-15T15:03:04.871Z,18.10
2022-09-15T15:07:31.413Z,18.10
2022-09-15T15:11:59.808Z,17.90
2022-09-15T15:16:31.640Z,17.70
2022-09-15T15:20:54.073Z,17.60
2022-09-15T15:25:32.691Z,17.60
2022-09-15T15:29:54.873Z,17.60
2022-09-15T15:34:25.639Z,17.70
2022-09-15T15:39:00.892Z,17.50
2022-09-15T15:43:27.472Z,17.30
2022-09-15T15:47:50.005Z,17.20
2022-09-15T15:52:12.087Z,17.00
2022-09-15T15:56:37.920Z,16.90
2022-09-15T16:01:00.751Z,16.90
2022-09-15T16:05:27.733Z,16.80
2022-09-15T16:09:50.853Z,17.00
2022-09-15T16:14:16.124Z,17.10
2022-09-15T16:18:38.291Z,17.00
2022-09-15T16:23:01.933Z,16.90
2022-09-15T16:27:24.312Z,16.70
2022-09-15T16:31:46.409Z,16.40
2022-09-15T16:36:17.974Z,16.20
2022-09-15T16:40:40.353Z,16.10
2022-09-15T16:45:03.353Z,15.80
2022-09-15T16:49:25.497Z,15.60
2022-09-15T16:53:48.352Z,15.50
2022-09-15T16:58:10.732Z,15.50
2022-09-15T17:02:33.252Z,15.40
2022-09-15T17:06:55.231Z,15.20
2022-09-15T17:11:20.213Z,14.90
2022-09-15T17:15:43.101Z,14.60
2022-09-15T17:20:06.313Z,14.10
2022-09-15T17:24:28.792Z,13.80
2022-09-15T17:28:51.624Z,13.50
2022-09-15T17:33:15.805Z,13.30
2022-09-15T17:37:38.004Z,13.00
2022-09-15T17:46:28.054Z,12.70
2022-09-15T17:50:51.944Z,12.50
2022-09-15T17:55:31.753Z,12.40
2022-09-15T17:59:54.213Z,12.50
2022-09-15T18:04:16.550Z,12.50
2022-09-15T18:08:39.093Z,12.50
2022-09-15T18:13:04.408Z,12.50
2022-09-15T18:17:26.683Z,12.50
2022-09-15T18:21:54.213Z,12.40
2022-09-15T18:26:16.322Z,12.50
2022-09-15T18:30:41.341Z,12.60
2022-09-15T18:35:03.572Z,12.60
2022-09-15T18:39:26.832Z,12.50
2022-09-15T18:43:52.053Z,12.40
2022-09-15T18:48:14.514Z,12.30
2022-09-15T18:52:39.392Z,12.30
2022-09-15T18:57:01.645Z,12.30
2022-09-15T19:01:24.416Z,12.30
2022-09-15T19:05:46.811Z,12.40
2022-09-15T19:10:11.234Z,12.40
2022-09-15T19:14:34.072Z,12.50
2022-09-15T19:18:57.252Z,12.50
2022-09-15T19:23:22.330Z,12.50
2022-09-15T19:27:44.525Z,12.50
2022-09-15T19:32:11.412Z,12.60
2022-09-15T19:36:34.123Z,12.50
2022-09-15T19:41:06.931Z,12.50
2022-09-15T19:45:29.523Z,12.50
2022-09-15T19:49:55.407Z,12.50
2022-09-15T19:54:17.414Z,12.50
2022-09-15T19:58:39.784Z,12.50
2022-09-15T20:03:02.132Z,12.50
2022-09-15T20:07:24.432Z,12.60
2022-09-15T20:11:47.093Z,12.60
2022-09-15T20:16:15.113Z,12.60
2022-09-15T20:20:40.373Z,12.70
2022-09-15T20:25:02.752Z,12.70
2022-09-15T20:29:25.188Z,12.70
2022-09-15T20:33:49.552Z,12.70
2022-09-15T20:38:11.973Z,12.60
2022-09-15T20:42:34.172Z,12.60
2022-09-15T20:46:56.251Z,12.70
2022-09-15T20:51:28.324Z,12.70
2022-09-15T20:55:51.517Z,12.80
2022-09-15T21:00:15.052Z,12.90
2022-09-15T21:04:37.312Z,12.90
2022-09-15T21:09:00.572Z,12.90
2022-09-15T21:13:23.646Z,12.80
2022-09-15T21:17:46.171Z,12.80
2022-09-15T21:22:08.592Z,12.90
2022-09-15T21:26:57.073Z,12.80
2022-09-15T21:31:30.467Z,12.80
2022-09-15T21:35:52.972Z,12.80
2022-09-15T21:40:15.504Z,12.80
2022-09-15T21:44:37.886Z,12.80
2022-09-15T21:49:01.214Z,12.70
2022-09-15T21:53:23.493Z,12.70
2022-09-15T21:57:45.513Z,12.70
2022-09-15T22:02:08.034Z,12.70
2022-09-15T22:06:40.772Z,12.70
2022-09-15T22:11:03.932Z,12.70
2022-09-15T22:15:27.744Z,12.70
2022-09-15T22:19:49.964Z,12.60
2022-09-15T22:24:13.953Z,12.50
2022-09-15T22:28:36.193Z,12.50
2022-09-15T22:32:58.431Z,12.40
2022-09-15T22:37:20.873Z,12.40
2022-09-15T22:41:42.893Z,12.40
2022-09-15T22:46:06.354Z,12.40
2022-09-15T22:50:28.853Z,12.40
2022-09-15T22:54:50.872Z,12.50
2022-09-15T22:59:13.893Z,12.50
2022-09-15T23:03:38.193Z,12.60
2022-09-15T23:08:01.093Z,12.60
2022-09-15T23:12:23.612Z,12.60
2022-09-15T23:16:45.821Z,12.60
2022-09-15T23:21:13.518Z,12.60
2022-09-15T23:25:36.012Z,12.60
2022-09-15T23:29:58.233Z,12.50
2022-09-15T23:34:20.372Z,12.50
2022-09-15T23:38:44.952Z,12.40
2022-09-15T23:43:09.947Z,12.40
2022-09-15T23:47:32.172Z,12.40
2022-09-15T23:51:54.253Z,12.40
2022-09-15T23:56:16.474Z,12.30
